LCY weather

London City Airport
London, England, United Kingdom

Public forecast

Using degrees Celsius for public forecast. Weather courtesy of forecast.io.

METAR (pilot weather report)

Retrieved 2019/02/22 02:20 UTC (0 seconds ago):

EGLC 220220Z AUTO 24005KT 200V270 1900 BR OVC002 07/07 Q1033

TAF (pilot weather forecast)

Forecast is more than 12 hours old.

Retrieved 2018/10/15 21:30 UTC (4 months ago):

TAF EGLC 152119Z 1521/1621 CNL